Time;durP1;ratioP1;P1;durP2;ratioP2;P2;SDS_P1;SDS_P2;PMS_P1;PMS_P2;Temp;Humidity;BMP_temperature;BMP_pressure;BME280_temperature;BME280_humidity;BME280_pressure;Samples;Min_cycle;Max_cycle;Signal;HPM_P1;HPM_P2
2021/12/23 00:01:38;;;;;;;45.28;17.10;;;;;;;-4.73;100.00;60311.91;5071904;28;20232;-73
2021/12/23 00:04:12;;;;;;;41.03;16.08;;;;;;;-4.88;100.00;60293.06;5071650;28;20211;-74
2021/12/23 00:06:41;;;;;;;34.17;13.75;;;;;;;-4.94;100.00;60289.78;5071914;28;20659;-75
2021/12/23 00:09:15;;;;;;;35.55;13.90;;;;;;;-4.94;100.00;60289.78;5071646;28;20203;-74
2021/12/23 00:11:44;;;;;;;43.70;18.88;;;;;;;-5.25;100.00;60254.66;5071639;28;20229;-75
2021/12/23 00:14:14;;;;;;;55.50;20.25;;;;;;;-4.89;100.00;60294.50;5071999;28;20226;-76
2021/12/23 00:16:44;;;;;;;60.30;22.02;;;;;;;-6.32;100.00;60143.09;5071725;28;20588;-74
2021/12/23 00:19:35;;;;;;;59.58;24.83;;;;;;;-7.16;100.00;60074.56;5071399;28;20208;-75
2021/12/23 00:24:53;;;;;;;48.95;22.17;;;;;;;-5.37;100.00;60246.97;5075947;28;20207;-75
2021/12/23 00:27:21;;;;;;;45.15;19.23;;;;;;;-5.57;100.00;60223.44;5075591;28;20196;-76
2021/12/23 00:29:48;;;;;;;51.13;21.10;;;;;;;-5.03;100.00;60282.25;5075826;28;20200;-75
2021/12/23 00:32:17;;;;;;;46.75;19.45;;;;;;;-5.20;100.00;60265.41;5074142;28;20237;-76
2021/12/23 00:34:44;;;;;;;66.72;25.25;;;;;;;-6.43;100.00;60134.00;5075587;28;20736;-74
2021/12/23 00:37:12;;;;;;;52.10;21.70;;;;;;;-5.34;100.00;60250.66;5074401;28;20204;-72
2021/12/23 00:39:44;;;;;;;54.80;22.90;;;;;;;-5.35;100.00;60244.63;5076530;28;20223;-74
2021/12/23 00:42:13;;;;;;;48.00;20.63;;;;;;;-6.33;100.00;60151.94;5075711;28;20251;-76
2021/12/23 00:44:45;;;;;;;42.85;19.75;;;;;;;-5.44;100.00;60234.63;5075178;28;20658;-76
2021/12/23 00:47:12;;;;;;;51.20;20.85;;;;;;;-7.06;100.00;60070.75;5074360;28;20200;-72
2021/12/23 00:49:40;;;;;;;47.92;20.50;;;;;;;-6.11;100.00;60165.19;5075298;28;20200;-75
2021/12/23 00:52:11;;;;;;;53.55;22.17;;;;;;;-6.84;100.00;60087.88;5074697;28;20270;-75
2021/12/23 00:54:41;;;;;;;61.60;21.80;;;;;;;-5.21;100.00;60259.38;5073985;28;20291;-75
2021/12/23 00:57:08;;;;;;;51.83;21.05;;;;;;;-5.38;100.00;60243.41;5075092;28;20196;-73
2021/12/23 00:59:40;;;;;;;51.25;20.77;;;;;;;-6.25;100.00;60155.41;5074971;28;20279;-71
2021/12/23 01:02:17;;;;;;;77.10;28.33;;;;;;;-5.58;100.00;60222.38;5074628;28;20694;-73
2021/12/23 01:04:48;;;;;;;68.15;25.08;;;;;;;-6.91;100.00;60086.00;5074903;28;20577;-76
2021/12/23 01:07:22;;;;;;;57.00;19.55;;;;;;;-5.53;100.00;60230.63;5074910;28;20200;-74
2021/12/23 01:09:50;;;;;;;34.90;14.35;;;;;;;-5.68;100.00;60211.84;5074747;28;20261;-72
2021/12/23 01:12:30;;;;;;;75.22;27.05;;;;;;;-5.71;100.00;60211.16;5074846;28;20208;-74
2021/12/23 01:15:12;;;;;;;59.08;22.70;;;;;;;-5.92;100.00;60184.13;5074678;28;20285;-74
2021/12/23 01:17:53;;;;;;;45.25;17.77;;;;;;;-5.73;100.00;60204.09;5074916;28;20196;-74
2021/12/23 01:20:26;;;;;;;50.75;19.95;;;;;;;-6.06;100.00;60165.50;5074369;28;20709;-73
2021/12/23 01:22:54;;;;;;;40.95;17.17;;;;;;;-5.92;100.00;60181.63;5074802;28;20290;-74
2021/12/23 01:25:22;;;;;;;45.45;18.67;;;;;;;-7.35;100.00;60040.28;5074586;28;20321;-73
2021/12/23 01:27:53;;;;;;;43.25;17.33;;;;;;;-6.00;100.00;60175.69;5073250;28;20222;-74
2021/12/23 01:30:27;;;;;;;40.63;17.95;;;;;;;-6.05;100.00;60171.50;5057149;28;20235;-73
2021/12/23 01:32:59;;;;;;;46.53;17.67;;;;;;;-6.03;100.00;60176.06;5074103;28;20243;-75
2021/12/23 01:35:27;;;;;;;37.10;17.67;;;;;;;-7.33;100.00;60036.91;5074423;28;20245;-73
2021/12/23 01:37:55;;;;;;;41.00;17.30;;;;;;;-8.00;100.00;59975.00;5066625;28;20250;-73
2021/12/23 01:40:25;;;;;;;34.60;13.07;;;;;;;-5.75;100.00;60211.91;5074076;28;20207;-74
2021/12/23 01:42:53;;;;;;;27.65;13.15;;;;;;;-7.70;100.00;60008.44;5074168;28;20261;-72
2021/12/23 01:45:23;;;;;;;37.90;15.02;;;;;;;-5.70;100.00;60207.78;5073891;28;20196;-73
2021/12/23 01:47:50;;;;;;;41.75;15.00;;;;;;;-5.79;100.00;60197.78;5074331;28;20325;-73
2021/12/23 01:50:24;;;;;;;37.83;14.82;;;;;;;-7.68;100.00;59997.69;5077499;28;20200;-73
2021/12/23 01:52:51;;;;;;;35.92;16.02;;;;;;;-7.43;100.00;60026.41;5076815;28;20192;-74
2021/12/23 01:55:24;;;;;;;33.78;11.40;;;;;;;-5.87;100.00;60189.38;5073909;28;20219;-74
2021/12/23 01:57:52;;;;;;;32.60;13.13;;;;;;;-6.50;100.00;60114.25;5073942;28;20261;-74
2021/12/23 02:00:25;;;;;;;32.65;13.60;;;;;;;-5.93;100.00;60188.53;5073437;28;20208;-74
2021/12/23 02:03:07;;;;;;;36.08;14.90;;;;;;;-5.78;100.00;60198.84;5073880;28;20211;-74
2021/12/23 02:05:34;;;;;;;42.03;15.70;;;;;;;-6.35;100.00;60144.88;5073708;28;20196;-74
2021/12/23 02:08:03;;;;;;;39.42;16.25;;;;;;;-7.19;100.00;60049.69;5073713;28;20667;-75
2021/12/23 02:10:31;;;;;;;31.88;13.20;;;;;;;-6.62;100.00;60121.44;5073638;28;20659;-74
2021/12/23 02:12:59;;;;;;;19.73;7.80;;;;;;;-5.98;100.00;60182.75;5073874;28;20338;-76
2021/12/23 02:15:30;;;;;;;36.80;14.90;;;;;;;-5.85;100.00;60191.50;5073822;28;20573;-73
2021/12/23 02:17:57;;;;;;;33.50;14.63;;;;;;;-7.11;100.00;60065.50;5073440;28;20245;-76
2021/12/23 02:20:30;;;;;;;33.38;15.18;;;;;;;-5.89;100.00;60190.28;5073324;28;20657;-74
2021/12/23 02:23:00;;;;;;;38.15;15.70;;;;;;;-7.44;100.00;60022.91;5073387;28;20231;-73
2021/12/23 02:25:28;;;;;;;39.00;16.17;;;;;;;-7.50;100.00;60024.00;5073467;28;20204;-73
2021/12/23 02:27:57;;;;;;;41.28;16.65;;;;;;;-5.82;100.00;60199.59;5073544;28;20258;-74
2021/12/23 02:30:29;;;;;;;51.88;18.23;;;;;;;-5.79;100.00;60200.28;5073206;28;20571;-74
2021/12/23 02:32:58;;;;;;;40.25;18.25;;;;;;;-5.74;100.00;60203.03;5073251;28;20240;-74
2021/12/23 02:35:29;;;;;;;44.08;18.27;;;;;;;-7.39;100.00;60028.13;5073048;28;20287;-76
2021/12/23 02:38:05;;;;;;;45.25;18.95;;;;;;;-5.78;100.00;60203.78;5072805;28;20220;-76
2021/12/23 02:40:35;;;;;;;41.08;18.58;;;;;;;-5.75;100.00;60206.97;5073677;28;20277;-72
2021/12/23 02:43:13;;;;;;;40.50;17.30;;;;;;;-7.10;100.00;60061.59;5072309;28;20257;-74
2021/12/23 02:45:45;;;;;;;42.67;17.77;;;;;;;-5.87;100.00;60191.88;5072464;28;20262;-73
2021/12/23 02:48:18;;;;;;;44.60;18.30;;;;;;;-7.41;100.00;60035.91;5072770;28;20602;-72
2021/12/23 02:50:49;;;;;;;40.85;17.42;;;;;;;-5.83;100.00;60198.56;5072987;28;20207;-75
2021/12/23 02:53:17;;;;;;;39.80;16.30;;;;;;;-5.81;100.00;60198.16;5072635;28;20640;-74
2021/12/23 02:55:46;;;;;;;39.80;16.00;;;;;;;-5.97;100.00;60179.38;5072836;28;20201;-73
2021/12/23 02:58:15;;;;;;;26.02;9.57;;;;;;;-7.04;100.00;60064.91;5072608;28;20266;-75
2021/12/23 03:00:48;;;;;;;13.88;5.65;;;;;;;-5.98;100.00;60180.28;5072554;28;20200;-72
2021/12/23 03:03:16;;;;;;;16.65;7.72;;;;;;;-6.23;100.00;60157.50;5072489;28;20200;-74
2021/12/23 03:05:48;;;;;;;14.77;5.63;;;;;;;-8.45;100.00;59915.47;5072857;28;20671;-73
2021/12/23 03:08:15;;;;;;;19.55;5.85;;;;;;;-7.10;100.00;60066.03;5072473;28;20196;-76
2021/12/23 03:10:43;;;;;;;9.32;5.13;;;;;;;-6.72;100.00;60105.44;5072492;28;20265;-74
2021/12/23 03:13:10;;;;;;;12.45;5.82;;;;;;;-8.62;100.00;59907.50;5072809;28;20192;-74
2021/12/23 03:15:37;;;;;;;15.35;6.10;;;;;;;-6.58;100.00;60118.22;5072598;28;20573;-73
2021/12/23 03:18:04;;;;;;;14.50;5.80;;;;;;;-8.53;100.00;59912.00;5072103;28;20239;-73
2021/12/23 03:20:32;;;;;;;16.00;8.07;;;;;;;-6.62;100.00;60116.50;5072114;28;20196;-73
2021/12/23 03:23:01;;;;;;;16.58;7.97;;;;;;;-6.69;100.00;60108.59;5071955;28;20772;-72
2021/12/23 03:25:29;;;;;;;22.30;8.35;;;;;;;-7.55;100.00;60013.81;5072340;28;20208;-74
2021/12/23 03:27:56;;;;;;;23.58;10.38;;;;;;;-7.23;100.00;60055.38;5072316;28;20661;-73
2021/12/23 03:30:25;;;;;;;21.38;9.70;;;;;;;-6.61;100.00;60112.06;5072189;28;20196;-72
2021/12/23 03:32:56;;;;;;;20.92;9.38;;;;;;;-8.59;100.00;59915.56;5071456;28;20232;-74
2021/12/23 03:35:24;;;;;;;18.88;10.02;;;;;;;-6.70;100.00;60103.13;5072160;28;20200;-73
2021/12/23 03:37:53;;;;;;;17.13;8.93;;;;;;;-7.21;100.00;60055.00;5071946;28;20223;-73
2021/12/23 03:40:23;;;;;;;18.92;9.05;;;;;;;-8.49;100.00;59915.66;5070683;28;20585;-74
2021/12/23 03:42:52;;;;;;;27.70;9.00;;;;;;;-7.13;100.00;60060.41;5071963;28;20228;-74
2021/12/23 03:45:21;;;;;;;27.98;8.25;;;;;;;-7.54;100.00;60019.81;5071815;28;20196;-75
2021/12/23 03:47:50;;;;;;;21.10;8.88;;;;;;;-6.22;100.00;60156.09;5072123;28;20629;-74
2021/12/23 03:50:19;;;;;;;24.67;8.98;;;;;;;-7.08;100.00;60068.66;5070073;28;20200;-73
2021/12/23 03:52:46;;;;;;;23.77;9.70;;;;;;;-6.43;100.00;60134.00;5071957;28;20196;-73
2021/12/23 03:55:15;;;;;;;19.60;9.60;;;;;;;-6.78;100.00;60094.72;5071715;28;20192;-75
2021/12/23 03:57:43;;;;;;;17.45;9.48;;;;;;;-6.35;100.00;60139.94;5071676;28;20201;-74
2021/12/23 04:00:18;;;;;;;17.60;8.90;;;;;;;-6.34;100.00;60145.94;5072796;28;20197;-72
2021/12/23 04:02:54;;;;;;;25.77;8.95;;;;;;;-6.20;100.00;60160.69;5075194;28;20663;-73
2021/12/23 04:05:23;;;;;;;25.85;8.85;;;;;;;-6.22;100.00;60155.56;5072095;28;20193;-75
2021/12/23 04:07:51;;;;;;;13.32;6.05;;;;;;;-6.96;100.00;60085.69;5072094;28;20223;-73
2021/12/23 04:10:22;;;;;;;17.75;6.20;;;;;;;-6.22;100.00;60156.09;5071651;28;20621;-74
2021/12/23 04:12:55;;;;;;;18.95;7.15;;;;;;;-7.63;100.00;60008.41;5071745;28;20266;-73
2021/12/23 04:15:22;;;;;;;10.98;5.13;;;;;;;-6.27;100.00;60153.31;5069152;28;20204;-74
2021/12/23 04:17:50;;;;;;;12.68;6.10;;;;;;;-6.31;100.00;60146.09;5071255;28;20212;-73
2021/12/23 04:20:20;;;;;;;13.05;5.60;;;;;;;-6.31;100.00;60143.59;5070317;28;20196;-74
2021/12/23 04:22:52;;;;;;;21.15;10.25;;;;;;;-6.33;100.00;60144.50;5071835;28;20260;-74
2021/12/23 04:25:22;;;;;;;32.42;14.13;;;;;;;-6.27;100.00;60148.34;5071310;28;20208;-74
2021/12/23 04:27:55;;;;;;;21.88;8.82;;;;;;;-6.30;100.00;60142.19;5071542;28;20245;-73
2021/12/23 04:30:25;;;;;;;21.38;9.02;;;;;;;-6.40;100.00;60134.16;5071733;28;20257;-75
2021/12/23 04:32:54;;;;;;;21.63;7.72;;;;;;;-6.47;100.00;60129.78;5071561;28;20293;-72
2021/12/23 04:35:23;;;;;;;14.50;6.25;;;;;;;-7.23;100.00;60057.31;5071485;28;20250;-75
2021/12/23 04:37:51;;;;;;;20.45;6.07;;;;;;;-6.41;100.00;60133.09;5071060;28;20710;-75
2021/12/23 04:40:21;;;;;;;12.85;5.32;;;;;;;-6.41;100.00;60136.09;5071095;28;20222;-75
2021/12/23 04:42:48;;;;;;;11.57;5.15;;;;;;;-6.45;100.00;60131.88;5071266;28;20236;-72
2021/12/23 04:45:17;;;;;;;10.90;5.28;;;;;;;-6.43;100.00;60134.00;5071672;28;20258;-75
2021/12/23 04:47:48;;;;;;;10.20;4.88;;;;;;;-6.39;100.00;60140.16;5071270;28;20253;-75
2021/12/23 04:50:16;;;;;;;15.77;5.40;;;;;;;-6.40;100.00;60139.63;5069967;28;20249;-73
2021/12/23 04:52:46;;;;;;;8.30;4.13;;;;;;;-8.09;100.00;59958.16;5071499;28;20214;-76
2021/12/23 04:55:18;;;;;;;13.13;5.43;;;;;;;-6.43;100.00;60134.00;5071158;28;20215;-73
2021/12/23 04:57:48;;;;;;;11.65;5.20;;;;;;;-7.90;100.00;59983.03;5071170;28;20261;-73
2021/12/23 05:00:20;;;;;;;10.82;5.38;;;;;;;-6.58;100.00;60120.19;5071426;28;20204;-75
2021/12/23 05:02:50;;;;;;;9.45;4.82;;;;;;;-6.88;100.00;60088.63;5071086;28;20598;-73
2021/12/23 05:05:19;;;;;;;12.77;5.40;;;;;;;-6.73;100.00;60109.88;5070659;28;20223;-74
2021/12/23 05:07:48;;;;;;;14.43;5.72;;;;;;;-8.11;100.00;59961.00;5074160;28;20254;-74
2021/12/23 05:10:32;;;;;;;11.88;5.88;;;;;;;-6.67;100.00;60111.22;5074781;28;20236;-76
2021/12/23 05:13:05;;;;;;;17.38;5.78;;;;;;;-6.58;100.00;60115.75;5074892;28;20200;-76
2021/12/23 05:15:46;;;;;;;13.88;6.03;;;;;;;-8.05;100.00;59962.34;5074724;28;20204;-74
2021/12/23 05:18:24;;;;;;;14.07;5.50;;;;;;;-6.50;100.00;60126.13;5074648;28;20567;-74
2021/12/23 05:20:53;;;;;;;15.82;5.65;;;;;;;-8.15;100.00;59956.81;5074666;28;20200;-74
2021/12/23 05:23:29;;;;;;;27.42;6.38;;;;;;;-6.42;100.00;60135.06;5074606;28;20286;-74
2021/12/23 05:25:57;;;;;;;18.40;7.40;;;;;;;-6.44;100.00;60132.94;5074574;28;20231;-74
2021/12/23 05:28:24;;;;;;;32.88;10.35;;;;;;;-6.54;100.00;60122.44;5074630;28;20201;-75
2021/12/23 05:30:56;;;;;;;23.92;9.43;;;;;;;-8.34;100.00;59928.94;5074653;28;20207;-75
2021/12/23 05:33:27;;;;;;;36.22;12.38;;;;;;;-6.52;100.00;60124.53;5074774;28;20650;-75
2021/12/23 05:36:00;;;;;;;37.03;12.88;;;;;;;-8.01;100.00;59966.56;5074617;28;20200;-77
2021/12/23 05:38:27;;;;;;;28.23;10.45;;;;;;;-6.62;100.00;60111.53;5074133;28;20220;-74
2021/12/23 05:40:59;;;;;;;34.97;11.48;;;;;;;-6.73;100.00;60099.44;5073882;28;20212;-75
2021/12/23 05:43:31;;;;;;;46.97;16.55;;;;;;;-6.74;100.00;60103.34;5075196;28;20232;-76
2021/12/23 05:46:04;;;;;;;43.85;17.23;;;;;;;-8.39;100.00;59931.63;5074132;28;20257;-73
2021/12/23 05:48:39;;;;;;;57.22;22.70;;;;;;;-7.19;100.00;60056.56;5073410;28;20200;-73
2021/12/23 05:51:09;;;;;;;67.43;25.63;;;;;;;-7.15;100.00;60055.81;5072864;28;20204;-74
2021/12/23 05:53:37;;;;;;;61.20;22.98;;;;;;;-7.30;100.00;60040.06;5074168;28;20204;-73
2021/12/23 05:56:05;;;;;;;67.05;24.98;;;;;;;-8.70;100.00;59894.69;5074560;28;20631;-73
2021/12/23 05:58:32;;;;;;;107.63;45.45;;;;;;;-7.21;100.00;60054.47;5074221;28;20232;-74
2021/12/23 06:01:01;;;;;;;88.45;33.30;;;;;;;-7.19;100.00;60057.09;5074019;28;20196;-74
2021/12/23 06:03:33;;;;;;;79.53;28.40;;;;;;;-7.30;100.00;60040.06;5073894;28;20293;-73
2021/12/23 06:06:01;;;;;;;69.35;24.92;;;;;;;-8.71;100.00;59898.06;5073871;28;20208;-75
2021/12/23 06:08:28;;;;;;;84.35;26.95;;;;;;;-8.74;100.00;59888.03;5072548;28;20227;-74
2021/12/23 06:10:56;;;;;;;93.28;34.92;;;;;;;-7.13;100.00;60057.94;5079847;28;20616;-72
2021/12/23 06:13:25;;;;;;;94.32;41.05;;;;;;;-7.05;100.00;60066.88;5079335;28;20573;-73
2021/12/23 06:15:52;;;;;;;109.97;44.92;;;;;;;-8.49;100.00;59926.06;5074518;28;20704;-74
2021/12/23 06:18:21;;;;;;;103.97;43.70;;;;;;;-7.19;100.00;60051.63;5072736;28;20204;-73
2021/12/23 06:20:49;;;;;;;123.22;56.00;;;;;;;-7.16;100.00;60057.25;5073978;28;20278;-76
2021/12/23 06:23:16;;;;;;;112.57;48.70;;;;;;;-6.42;100.00;60137.53;5072409;28;20224;-74
2021/12/23 06:25:48;;;;;;;165.05;63.22;;;;;;;-7.36;100.00;60039.22;5073892;28;20234;-74
2021/12/23 06:28:15;;;;;;;117.65;46.55;;;;;;;-5.32;100.00;60252.75;5073629;28;20192;-73
2021/12/23 06:30:42;;;;;;;101.05;40.35;;;;;;;-4.76;100.00;60311.22;5073560;28;20204;-73
2021/12/23 06:33:12;;;;;;;137.45;50.45;;;;;;;-4.43;100.00;60341.03;5073067;28;20706;-73
2021/12/23 06:35:44;;;;;;;111.85;43.40;;;;;;;-3.35;100.00;60458.88;5073402;28;20335;-74
2021/12/23 06:38:14;;;;;;;102.97;39.10;;;;;;;-3.41;100.00;60457.50;5073592;28;20668;-75
2021/12/23 06:40:41;;;;;;;87.63;39.83;;;;;;;-1.27;100.00;60677.63;5073137;28;20450;-74
2021/12/23 06:43:09;;;;;;;105.07;45.07;;;;;;;-0.82;100.00;60719.19;5073092;28;20556;-74
2021/12/23 06:45:36;;;;;;;103.70;45.63;;;;;;;-0.51;100.00;60752.00;5072216;28;20457;-73
2021/12/23 06:48:04;;;;;;;106.00;47.60;;;;;;;-1.56;100.00;60639.44;5073564;28;20434;-74
2021/12/23 06:50:32;;;;;;;93.63;43.67;;;;;;;-0.32;100.00;60770.13;5073066;28;20888;-72
2021/12/23 06:53:02;;;;;;;90.40;40.37;;;;;;;0.92;100.00;60904.97;5073214;28;20997;-71
2021/12/23 06:55:33;;;;;;;82.40;33.47;;;;;;;1.56;100.00;60970.34;5072906;28;20437;-73
2021/12/23 06:58:00;;;;;;;70.47;30.57;;;;;;;0.48;100.00;60861.88;5073072;28;20466;-75
2021/12/23 07:00:34;;;;;;;65.50;30.13;;;;;;;0.08;100.00;60817.00;5073055;28;20470;-73
2021/12/23 07:03:07;;;;;;;64.30;25.27;;;;;;;1.75;100.00;60993.03;5071694;28;20865;-75
2021/12/23 07:05:36;;;;;;;44.53;21.37;;;;;;;1.11;100.00;60922.63;5072932;28;20860;-73
2021/12/23 07:08:10;;;;;;;43.57;21.00;;;;;;;0.57;100.00;60871.41;5073001;28;20503;-74
2021/12/23 07:10:41;;;;;;;52.30;21.93;;;;;;;-0.31;100.00;60778.72;5073418;28;20438;-75
2021/12/23 07:13:20;;;;;;;54.77;25.53;;;;;;;0.51;100.00;60865.06;5072679;28;20446;-74
2021/12/23 07:15:50;;;;;;;44.40;21.13;;;;;;;-0.16;100.00;60782.06;5072965;28;20450;-72
2021/12/23 07:18:17;;;;;;;45.83;23.33;;;;;;;0.26;100.00;60836.06;5072194;28;20575;-74
2021/12/23 07:20:47;;;;;;;50.60;21.90;;;;;;;0.79;100.00;60889.72;5072589;28;20472;-74
2021/12/23 07:23:17;;;;;;;40.83;21.23;;;;;;;1.38;100.00;60951.25;5072422;28;20486;-75
2021/12/23 07:25:45;;;;;;;44.90;20.23;;;;;;;1.57;100.00;60971.41;5073009;28;20450;-74
2021/12/23 07:28:13;;;;;;;43.77;19.37;;;;;;;1.44;100.00;60965.13;5072633;28;21012;-72
2021/12/23 07:30:41;;;;;;;39.60;19.97;;;;;;;1.51;100.00;60965.03;5072257;28;20556;-74
2021/12/23 07:33:08;;;;;;;40.07;18.40;;;;;;;1.34;100.00;60947.00;5072250;28;20471;-75
2021/12/23 07:35:36;;;;;;;46.03;20.63;;;;;;;0.92;100.00;60902.44;5072809;28;20458;-73
2021/12/23 07:38:05;;;;;;;49.10;22.07;;;;;;;-1.59;100.00;60643.78;5072164;28;20524;-74
2021/12/23 07:40:35;;;;;;;48.37;22.20;;;;;;;-1.41;100.00;60657.81;5072064;28;20451;-75
2021/12/23 07:43:31;;;;;;;50.50;21.10;;;;;;;-3.41;100.00;60452.53;5071969;28;20490;-73
2021/12/23 07:45:59;;;;;;;58.70;23.40;;;;;;;-3.36;100.00;60452.84;5071830;28;20446;-72
2021/12/23 07:48:26;;;;;;;56.17;24.43;;;;;;;-3.65;100.00;60422.22;5072405;28;20445;-73
2021/12/23 07:50:55;;;;;;;53.27;20.40;;;;;;;-3.38;100.00;60450.72;5071756;28;20527;-74
2021/12/23 07:53:22;;;;;;;51.80;20.53;;;;;;;-3.59;100.00;60431.06;5071896;28;20450;-74
2021/12/23 07:55:51;;;;;;;48.17;21.00;;;;;;;-3.42;100.00;60451.50;5071721;28;20451;-75
2021/12/23 07:58:19;;;;;;;53.20;21.50;;;;;;;-4.70;100.00;60307.59;5071355;28;20446;-77
2021/12/23 08:00:46;;;;;;;49.67;21.73;;;;;;;-3.88;100.00;60407.94;5071996;28;20446;-74
2021/12/23 08:03:16;;;;;;;49.22;20.55;;;;;;;-4.24;100.00;60360.53;5071840;28;20478;-73
2021/12/23 08:05:44;;;;;;;48.20;21.92;;;;;;;-3.83;100.00;60403.25;5072522;28;20200;-74
2021/12/23 08:08:11;;;;;;;58.80;23.70;;;;;;;-4.50;100.00;60338.63;5072229;28;20242;-73
2021/12/23 08:10:42;;;;;;;48.07;18.20;;;;;;;-3.25;100.00;60469.44;5071712;28;20447;-75
2021/12/23 08:13:10;;;;;;;53.53;21.88;;;;;;;-5.06;100.00;60274.66;5070487;28;20450;-76
2021/12/23 08:15:38;;;;;;;47.40;21.55;;;;;;;-4.82;100.00;60304.91;5071503;28;20667;-73
2021/12/23 08:18:05;;;;;;;46.80;19.33;;;;;;;-3.28;100.00;60461.28;5077499;28;20214;-75
2021/12/23 08:20:32;;;;;;;45.03;18.30;;;;;;;-3.33;100.00;60456.00;5072106;28;20438;-74
2021/12/23 08:22:59;;;;;;;41.85;17.17;;;;;;;-4.80;100.00;60306.47;5072022;28;20223;-75
2021/12/23 08:25:27;;;;;;;38.10;15.20;;;;;;;-3.78;100.00;60418.47;5071806;28;20361;-72
2021/12/23 08:27:57;;;;;;;36.00;14.32;;;;;;;-3.68;100.00;60419.06;5071267;28;20238;-74
2021/12/23 08:30:32;;;;;;;27.27;12.70;;;;;;;-3.71;100.00;60420.88;5071599;28;20698;-74
2021/12/23 08:32:59;;;;;;;34.95;16.48;;;;;;;-5.21;100.00;60253.88;5072292;28;20583;-76
2021/12/23 08:35:29;;;;;;;42.72;18.35;;;;;;;-3.73;100.00;60413.78;5071370;28;20262;-73
2021/12/23 08:37:58;;;;;;;42.78;16.15;;;;;;;-3.58;100.00;60432.13;5071089;28;20659;-75
2021/12/23 08:40:28;;;;;;;38.67;16.27;;;;;;;-3.52;100.00;60440.94;5071571;28;20205;-72
2021/12/23 08:42:57;;;;;;;41.08;17.23;;;;;;;-3.54;100.00;60438.81;5075001;28;20592;-75
2021/12/23 08:45:28;;;;;;;56.63;22.75;;;;;;;-3.27;100.00;60467.31;5075730;28;20283;-75
2021/12/23 08:47:56;;;;;;;55.47;23.85;;;;;;;-3.03;100.00;60492.66;5075596;28;20608;-76
2021/12/23 08:50:25;;;;;;;47.50;18.85;;;;;;;-2.90;100.00;60503.38;5074756;28;20216;-75
2021/12/23 08:52:53;;;;;;;45.17;18.40;;;;;;;-2.86;100.00;60505.63;5075061;28;20628;-74
2021/12/23 08:55:23;;;;;;;51.00;21.83;;;;;;;-2.82;100.00;60509.84;5075753;28;20449;-75
2021/12/23 08:57:52;;;;;;;43.10;19.80;;;;;;;-3.56;100.00;60434.22;5075942;28;20435;-74
2021/12/23 09:00:22;;;;;;;36.33;16.63;;;;;;;-4.14;100.00;60373.56;5075505;28;20443;-75
2021/12/23 09:02:56;;;;;;;45.33;16.50;;;;;;;-2.76;100.00;60516.19;5076116;28;20482;-75
2021/12/23 09:05:33;;;;;;;46.00;16.40;;;;;;;-3.49;100.00;60436.63;5078104;28;20460;-75
2021/12/23 09:08:06;;;;;;;32.73;13.63;;;;;;;-2.34;100.00;60561.97;5075365;28;20430;-74
2021/12/23 09:10:34;;;;;;;28.23;14.07;;;;;;;-2.63;100.00;60534.38;5073971;28;20450;-76
2021/12/23 09:13:08;;;;;;;28.47;14.83;;;;;;;-2.60;100.00;60535.59;5074376;28;20529;-75
2021/12/23 09:15:36;;;;;;;45.97;17.60;;;;;;;-3.62;100.00;60425.91;5076180;28;20454;-75
2021/12/23 09:18:06;;;;;;;30.80;13.90;;;;;;;-4.00;100.00;60385.31;5076346;28;20512;-73
2021/12/23 09:20:34;;;;;;;44.90;15.70;;;;;;;-3.63;100.00;60424.88;5075676;28;20520;-76
2021/12/23 09:23:07;;;;;;;38.60;15.93;;;;;;;-2.13;100.00;60586.69;5074716;28;20900;-76
2021/12/23 09:28:54;;;;;;;30.30;13.77;;;;;;;-2.43;100.00;60552.50;5074403;28;20529;-73
2021/12/23 09:34:10;;;;;;;21.67;10.67;;;;;;;-2.08;100.00;60587.50;5074670;28;20476;-73
2021/12/23 09:36:41;;;;;;;25.70;11.40;;;;;;;-2.72;100.00;60517.38;5075323;28;20447;-75
2021/12/23 09:39:12;;;;;;;21.10;10.87;;;;;;;-2.28;100.00;60573.31;5074532;28;20455;-75
2021/12/23 09:41:41;;;;;;;28.60;12.20;;;;;;;-2.03;100.00;60595.28;5074636;28;20439;-73
2021/12/23 09:44:11;;;;;;;28.70;12.70;;;;;;;-2.25;100.00;60569.53;5074595;28;20519;-73
2021/12/23 09:46:42;;;;;;;24.53;12.10;;;;;;;-1.45;100.00;60658.59;5074685;28;20884;-73
2021/12/23 09:49:13;;;;;;;26.13;12.87;;;;;;;-1.66;100.00;60636.38;5074435;28;20449;-75
2021/12/23 09:51:43;;;;;;;26.60;11.70;;;;;;;-1.32;100.00;60667.31;5074748;28;20443;-76
2021/12/23 09:54:13;;;;;;;21.57;11.77;;;;;;;-1.38;100.00;60660.97;5074591;28;20885;-73
2021/12/23 09:56:44;;;;;;;23.50;11.30;;;;;;;-1.32;100.00;60667.31;5074066;28;20488;-75
2021/12/23 10:02:03;;;;;;;24.90;11.83;;;;;;;-1.22;100.00;60677.91;5074753;28;20435;-76
2021/12/23 10:04:34;;;;;;;26.23;12.20;;;;;;;-1.34;100.00;60667.72;5074991;28;20508;-75
2021/12/23 10:07:07;;;;;;;28.20;12.33;;;;;;;-1.37;100.00;60666.50;5074744;28;20458;-74
2021/12/23 10:09:45;;;;;;;30.83;12.83;;;;;;;-1.39;100.00;60662.44;5073862;28;20466;-75
2021/12/23 10:32:12;;;;;;;36.50;13.77;;;;;;;-0.56;100.00;60746.72;5074106;28;20580;-74
2021/12/23 10:38:02;;;;;;;31.03;12.83;;;;;;;-1.01;100.00;60700.13;5013177;28;20539;-74
2021/12/23 10:40:34;;;;;;;25.63;12.53;;;;;;;0.55;100.00;60864.28;4995162;28;20459;-74
2021/12/23 10:43:08;;;;;;;26.37;12.50;;;;;;;1.44;100.00;60960.13;5047876;28;20860;-75
2021/12/23 10:45:53;;;;;;;32.07;14.13;;;;;;;1.46;100.00;60962.25;5073396;28;20450;-76
2021/12/23 10:48:20;;;;;;;30.60;13.03;;;;;;;3.05;100.00;61133.09;5074323;28;20438;-76
2021/12/23 10:50:50;;;;;;;28.97;13.07;;;;;;;3.70;100.00;61201.69;5073501;28;20499;-75
2021/12/23 10:53:40;;;;;;;25.57;12.07;;;;;;;3.74;100.00;61200.91;5074945;28;20554;-74
2021/12/23 10:59:05;;;;;;;22.13;11.67;;;;;;;5.93;100.00;61437.56;5074407;28;20485;-75
2021/12/23 11:02:00;;;;;;;22.87;11.97;;;;;;;5.03;100.00;61339.66;5074185;28;20434;-74
2021/12/23 11:04:33;;;;;;;22.20;11.70;;;;;;;5.86;100.00;61425.59;5072986;28;20486;-75
2021/12/23 11:07:21;;;;;;;19.57;10.57;;;;;;;5.66;100.00;61401.72;5073779;28;20492;-76
2021/12/23 11:10:16;;;;;;;21.97;11.10;;;;;;;6.56;100.00;61504.25;5074102;28;20529;-77
2021/12/23 11:35:48;;;;;;;19.57;10.90;;;;;;;9.46;100.00;61806.91;5073776;28;20434;-75
2021/12/23 11:38:22;;;;;;;30.93;11.90;;;;;;;9.33;100.00;61788.97;5073275;28;20840;-75
2021/12/23 11:40:56;;;;;;;33.57;11.87;;;;;;;8.63;100.00;61714.13;5073153;28;20473;-75
2021/12/23 11:46:08;;;;;;;36.00;14.20;;;;;;;10.16;100.00;61886.94;5064049;28;20445;-76
2021/12/23 11:48:43;;;;;;;24.80;12.20;;;;;;;9.20;100.00;61774.53;5073172;28;20451;-76
2021/12/23 11:51:30;;;;;;;25.73;12.27;;;;;;;10.32;100.00;61898.97;5073010;28;20481;-76
2021/12/23 11:54:05;;;;;;;23.00;11.20;;;;;;;10.47;100.00;61915.03;5072796;28;20523;-76
2021/12/23 11:56:41;;;;;;;23.03;11.37;;;;;;;10.79;100.00;61949.31;5073277;28;20435;-75
2021/12/23 11:59:17;;;;;;;26.10;12.83;;;;;;;11.14;100.00;61988.31;5073341;28;20466;-76
2021/12/23 12:01:46;;;;;;;33.60;13.30;;;;;;;11.49;100.00;62028.38;5072533;28;20511;-77
2021/12/23 12:04:22;;;;;;;21.80;9.60;;;;;;;8.65;100.00;61725.88;5072611;28;20494;-76
2021/12/23 12:06:55;;;;;;;26.10;11.97;;;;;;;10.24;100.00;61890.41;5072411;28;20200;-75
2021/12/23 12:09:27;;;;;;;32.40;13.20;;;;;;;10.58;100.00;61926.81;5091235;28;20533;-75
2021/12/23 12:12:11;;;;;;;24.40;10.90;;;;;;;11.40;100.00;62016.16;5097840;28;20435;-75
2021/12/23 12:14:51;;;;;;;23.37;10.43;;;;;;;11.76;100.00;62049.69;5082985;28;20195;-75
2021/12/23 12:17:42;;;;;;;31.23;13.07;;;;;;;12.40;100.00;62123.47;5080712;28;20192;-77
2021/12/23 12:20:21;;;;;;;32.27;12.73;;;;;;;11.12;97.41;61984.16;5072278;28;20196;-76
2021/12/23 12:22:59;;;;;;;77.07;27.67;;;;;;;11.15;100.00;61989.38;5071847;28;20203;-75
2021/12/23 12:25:47;;;;;;;20.47;11.53;;;;;;;11.83;95.42;62057.22;5079055;28;20250;-75
2021/12/23 12:28:20;;;;;;;25.87;11.03;;;;;;;11.87;91.92;62064.06;5073014;28;20691;-76
2021/12/23 12:31:19;;;;;;;19.90;10.27;;;;;;;12.61;86.69;62140.34;5071483;28;20208;-74
2021/12/23 12:33:55;;;;;;;23.97;12.70;;;;;;;12.71;75.37;62154.19;5072663;28;20290;-76